sensor_id;sensor_type;location;lat;lon;timestamp;P1;P2;P0
56175;PMS5003;63065;51.082;17.016;2023-05-07T00:01:45;21;20;
56175;PMS5003;63065;51.082;17.016;2023-05-07T00:04:10;16;16;
56175;PMS5003;63065;51.082;17.016;2023-05-07T00:06:36;19;18;
56175;PMS5003;63065;51.082;17.016;2023-05-07T00:09:01;20;18;
56175;PMS5003;63065;51.082;17.016;2023-05-07T00:11:27;24;22;
56175;PMS5003;63065;51.082;17.016;2023-05-07T00:13:52;20;20;
56175;PMS5003;63065;51.082;17.016;2023-05-07T00:16:17;20;20;
56175;PMS5003;63065;51.082;17.016;2023-05-07T00:18:44;24;23;
56175;PMS5003;63065;51.082;17.016;2023-05-07T00:21:08;16;15;
56175;PMS5003;63065;51.082;17.016;2023-05-07T00:23:34;14;13;
56175;PMS5003;63065;51.082;17.016;2023-05-07T00:25:59;17;16;
56175;PMS5003;63065;51.082;17.016;2023-05-07T00:28:24;17;16;
56175;PMS5003;63065;51.082;17.016;2023-05-07T00:30:50;18;18;
56175;PMS5003;63065;51.082;17.016;2023-05-07T00:33:15;16;16;
56175;PMS5003;63065;51.082;17.016;2023-05-07T00:35:42;19;19;
56175;PMS5003;63065;51.082;17.016;2023-05-07T00:38:05;17;17;
56175;PMS5003;63065;51.082;17.016;2023-05-07T00:40:31;20;20;
56175;PMS5003;63065;51.082;17.016;2023-05-07T00:42:56;16;15;
56175;PMS5003;63065;51.082;17.016;2023-05-07T00:45:21;19;17;
56175;PMS5003;63065;51.082;17.016;2023-05-07T00:47:46;19;19;
56175;PMS5003;63065;51.082;17.016;2023-05-07T00:50:12;18;17;
56175;PMS5003;63065;51.082;17.016;2023-05-07T00:52:37;15;15;
56175;PMS5003;63065;51.082;17.016;2023-05-07T00:55:04;19;18;
56175;PMS5003;63065;51.082;17.016;2023-05-07T00:57:28;18;18;
56175;PMS5003;63065;51.082;17.016;2023-05-07T00:59:54;16;15;
56175;PMS5003;63065;51.082;17.016;2023-05-07T01:02:19;20;17;
56175;PMS5003;63065;51.082;17.016;2023-05-07T01:04:45;18;18;
56175;PMS5003;63065;51.082;17.016;2023-05-07T01:07:10;19;17;
56175;PMS5003;63065;51.082;17.016;2023-05-07T01:09:36;18;16;
56175;PMS5003;63065;51.082;17.016;2023-05-07T01:12:01;21;20;
56175;PMS5003;63065;51.082;17.016;2023-05-07T01:14:27;18;17;
56175;PMS5003;63065;51.082;17.016;2023-05-07T01:16:53;23;20;
56175;PMS5003;63065;51.082;17.016;2023-05-07T01:19:18;19;17;
56175;PMS5003;63065;51.082;17.016;2023-05-07T01:21:44;20;18;
56175;PMS5003;63065;51.082;17.016;2023-05-07T01:24:09;22;21;
56175;PMS5003;63065;51.082;17.016;2023-05-07T01:26:34;19;18;
56175;PMS5003;63065;51.082;17.016;2023-05-07T01:29:00;20;18;
56175;PMS5003;63065;51.082;17.016;2023-05-07T01:31:25;21;21;
56175;PMS5003;63065;51.082;17.016;2023-05-07T01:33:50;22;21;
56175;PMS5003;63065;51.082;17.016;2023-05-07T01:36:17;25;24;
56175;PMS5003;63065;51.082;17.016;2023-05-07T01:38:42;22;22;
56175;PMS5003;63065;51.082;17.016;2023-05-07T01:41:07;21;21;
56175;PMS5003;63065;51.082;17.016;2023-05-07T01:43:32;19;19;
56175;PMS5003;63065;51.082;17.016;2023-05-07T01:45:58;22;21;
56175;PMS5003;63065;51.082;17.016;2023-05-07T01:48:24;16;15;
56175;PMS5003;63065;51.082;17.016;2023-05-07T01:50:49;19;18;
56175;PMS5003;63065;51.082;17.016;2023-05-07T01:53:15;18;18;
56175;PMS5003;63065;51.082;17.016;2023-05-07T01:55:40;20;16;
56175;PMS5003;63065;51.082;17.016;2023-05-07T01:58:06;18;17;
56175;PMS5003;63065;51.082;17.016;2023-05-07T02:00:31;20;20;
56175;PMS5003;63065;51.082;17.016;2023-05-07T02:02:57;20;19;
56175;PMS5003;63065;51.082;17.016;2023-05-07T02:05:23;20;20;
56175;PMS5003;63065;51.082;17.016;2023-05-07T02:07:48;21;21;
56175;PMS5003;63065;51.082;17.016;2023-05-07T02:10:14;24;22;
56175;PMS5003;63065;51.082;17.016;2023-05-07T02:12:39;20;19;
56175;PMS5003;63065;51.082;17.016;2023-05-07T02:15:05;23;22;
56175;PMS5003;63065;51.082;17.016;2023-05-07T02:17:30;21;20;
56175;PMS5003;63065;51.082;17.016;2023-05-07T02:19:55;19;18;
56175;PMS5003;63065;51.082;17.016;2023-05-07T02:22:20;21;20;
56175;PMS5003;63065;51.082;17.016;2023-05-07T02:24:45;24;23;
56175;PMS5003;63065;51.082;17.016;2023-05-07T02:27:11;22;19;
56175;PMS5003;63065;51.082;17.016;2023-05-07T02:29:36;23;23;
56175;PMS5003;63065;51.082;17.016;2023-05-07T02:32:02;23;21;
56175;PMS5003;63065;51.082;17.016;2023-05-07T02:34:27;22;21;
56175;PMS5003;63065;51.082;17.016;2023-05-07T02:36:52;21;20;
56175;PMS5003;63065;51.082;17.016;2023-05-07T02:39:17;19;19;
56175;PMS5003;63065;51.082;17.016;2023-05-07T02:41:43;25;24;
56175;PMS5003;63065;51.082;17.016;2023-05-07T02:44:08;19;19;
56175;PMS5003;63065;51.082;17.016;2023-05-07T02:46:33;24;22;
56175;PMS5003;63065;51.082;17.016;2023-05-07T02:48:59;23;20;
56175;PMS5003;63065;51.082;17.016;2023-05-07T02:51:25;22;21;
56175;PMS5003;63065;51.082;17.016;2023-05-07T02:53:49;23;23;
56175;PMS5003;63065;51.082;17.016;2023-05-07T02:56:15;20;18;
56175;PMS5003;63065;51.082;17.016;2023-05-07T02:58:41;25;21;
56175;PMS5003;63065;51.082;17.016;2023-05-07T03:01:06;25;24;
56175;PMS5003;63065;51.082;17.016;2023-05-07T03:03:31;17;17;
56175;PMS5003;63065;51.082;17.016;2023-05-07T03:05:57;20;19;
56175;PMS5003;63065;51.082;17.016;2023-05-07T03:08:22;22;19;
56175;PMS5003;63065;51.082;17.016;2023-05-07T03:10:47;26;21;
56175;PMS5003;63065;51.082;17.016;2023-05-07T03:13:13;25;22;
56175;PMS5003;63065;51.082;17.016;2023-05-07T03:15:38;19;19;
56175;PMS5003;63065;51.082;17.016;2023-05-07T03:18:04;22;20;
56175;PMS5003;63065;51.082;17.016;2023-05-07T03:20:30;18;17;
56175;PMS5003;63065;51.082;17.016;2023-05-07T03:22:55;22;19;
56175;PMS5003;63065;51.082;17.016;2023-05-07T03:25:20;22;22;
56175;PMS5003;63065;51.082;17.016;2023-05-07T03:27:46;23;22;
56175;PMS5003;63065;51.082;17.016;2023-05-07T03:30:12;19;19;
56175;PMS5003;63065;51.082;17.016;2023-05-07T03:32:37;20;20;
56175;PMS5003;63065;51.082;17.016;2023-05-07T03:35:03;21;19;
56175;PMS5003;63065;51.082;17.016;2023-05-07T03:37:28;24;23;
56175;PMS5003;63065;51.082;17.016;2023-05-07T03:39:53;24;24;
56175;PMS5003;63065;51.082;17.016;2023-05-07T03:42:18;23;20;
56175;PMS5003;63065;51.082;17.016;2023-05-07T03:44:44;19;19;
56175;PMS5003;63065;51.082;17.016;2023-05-07T03:47:09;19;17;
56175;PMS5003;63065;51.082;17.016;2023-05-07T03:49:35;17;14;
56175;PMS5003;63065;51.082;17.016;2023-05-07T03:52:01;16;16;
56175;PMS5003;63065;51.082;17.016;2023-05-07T03:54:26;21;19;
56175;PMS5003;63065;51.082;17.016;2023-05-07T03:56:51;14;14;
56175;PMS5003;63065;51.082;17.016;2023-05-07T03:59:17;16;16;
56175;PMS5003;63065;51.082;17.016;2023-05-07T04:01:42;17;16;
56175;PMS5003;63065;51.082;17.016;2023-05-07T04:04:07;17;15;
56175;PMS5003;63065;51.082;17.016;2023-05-07T04:06:33;14;14;
56175;PMS5003;63065;51.082;17.016;2023-05-07T04:08:58;21;17;
56175;PMS5003;63065;51.082;17.016;2023-05-07T04:11:23;14;14;
56175;PMS5003;63065;51.082;17.016;2023-05-07T04:13:49;11;11;
56175;PMS5003;63065;51.082;17.016;2023-05-07T04:16:14;12;12;
56175;PMS5003;63065;51.082;17.016;2023-05-07T04:18:39;15;15;
56175;PMS5003;63065;51.082;17.016;2023-05-07T04:21:05;13;13;
56175;PMS5003;63065;51.082;17.016;2023-05-07T04:23:31;17;17;
56175;PMS5003;63065;51.082;17.016;2023-05-07T04:25:56;12;11;
56175;PMS5003;63065;51.082;17.016;2023-05-07T04:28:21;15;15;
56175;PMS5003;63065;51.082;17.016;2023-05-07T04:30:46;15;15;
56175;PMS5003;63065;51.082;17.016;2023-05-07T04:33:11;18;15;
56175;PMS5003;63065;51.082;17.016;2023-05-07T04:35:36;12;12;
56175;PMS5003;63065;51.082;17.016;2023-05-07T04:38:02;16;15;
56175;PMS5003;63065;51.082;17.016;2023-05-07T04:40:27;16;13;
56175;PMS5003;63065;51.082;17.016;2023-05-07T04:42:53;18;16;
56175;PMS5003;63065;51.082;17.016;2023-05-07T04:45:18;15;14;
56175;PMS5003;63065;51.082;17.016;2023-05-07T04:47:44;13;13;
56175;PMS5003;63065;51.082;17.016;2023-05-07T04:50:09;17;13;
56175;PMS5003;63065;51.082;17.016;2023-05-07T04:52:34;21;20;
56175;PMS5003;63065;51.082;17.016;2023-05-07T04:55:00;17;17;
56175;PMS5003;63065;51.082;17.016;2023-05-07T04:57:25;16;16;
56175;PMS5003;63065;51.082;17.016;2023-05-07T04:59:50;13;12;
56175;PMS5003;63065;51.082;17.016;2023-05-07T05:02:16;15;14;
56175;PMS5003;63065;51.082;17.016;2023-05-07T05:04:41;12;11;
56175;PMS5003;63065;51.082;17.016;2023-05-07T05:07:07;16;15;
56175;PMS5003;63065;51.082;17.016;2023-05-07T05:09:32;14;14;
56175;PMS5003;63065;51.082;17.016;2023-05-07T05:11:58;16;14;
56175;PMS5003;63065;51.082;17.016;2023-05-07T05:14:24;13;13;
56175;PMS5003;63065;51.082;17.016;2023-05-07T05:16:49;12;12;
56175;PMS5003;63065;51.082;17.016;2023-05-07T05:19:15;15;15;
56175;PMS5003;63065;51.082;17.016;2023-05-07T05:21:41;12;12;
56175;PMS5003;63065;51.082;17.016;2023-05-07T05:24:07;12;12;
56175;PMS5003;63065;51.082;17.016;2023-05-07T05:26:32;11;11;
56175;PMS5003;63065;51.082;17.016;2023-05-07T05:28:57;14;13;
56175;PMS5003;63065;51.082;17.016;2023-05-07T05:31:23;17;15;
56175;PMS5003;63065;51.082;17.016;2023-05-07T05:33:49;15;15;
56175;PMS5003;63065;51.082;17.016;2023-05-07T05:36:14;18;16;
56175;PMS5003;63065;51.082;17.016;2023-05-07T05:38:40;16;16;
56175;PMS5003;63065;51.082;17.016;2023-05-07T05:41:05;16;16;
56175;PMS5003;63065;51.082;17.016;2023-05-07T05:43:30;14;14;
56175;PMS5003;63065;51.082;17.016;2023-05-07T05:45:56;20;18;
56175;PMS5003;63065;51.082;17.016;2023-05-07T05:48:21;16;16;
56175;PMS5003;63065;51.082;17.016;2023-05-07T05:50:46;16;16;
56175;PMS5003;63065;51.082;17.016;2023-05-07T05:53:11;21;18;
56175;PMS5003;63065;51.082;17.016;2023-05-07T05:55:37;26;25;
56175;PMS5003;63065;51.082;17.016;2023-05-07T05:58:02;20;18;
56175;PMS5003;63065;51.082;17.016;2023-05-07T06:00:28;17;17;
56175;PMS5003;63065;51.082;17.016;2023-05-07T06:02:53;21;21;
56175;PMS5003;63065;51.082;17.016;2023-05-07T06:05:19;19;16;
56175;PMS5003;63065;51.082;17.016;2023-05-07T06:07:45;25;24;
56175;PMS5003;63065;51.082;17.016;2023-05-07T06:10:10;22;22;
56175;PMS5003;63065;51.082;17.016;2023-05-07T06:12:36;32;27;
56175;PMS5003;63065;51.082;17.016;2023-05-07T06:15:01;22;22;
56175;PMS5003;63065;51.082;17.016;2023-05-07T06:17:27;21;19;
56175;PMS5003;63065;51.082;17.016;2023-05-07T06:19:53;20;17;
56175;PMS5003;63065;51.082;17.016;2023-05-07T06:22:18;12;12;
56175;PMS5003;63065;51.082;17.016;2023-05-07T06:24:44;18;18;
56175;PMS5003;63065;51.082;17.016;2023-05-07T06:27:09;16;16;
56175;PMS5003;63065;51.082;17.016;2023-05-07T06:29:34;14;14;
56175;PMS5003;63065;51.082;17.016;2023-05-07T06:34:25;18;17;
56175;PMS5003;63065;51.082;17.016;2023-05-07T06:36:51;16;14;
56175;PMS5003;63065;51.082;17.016;2023-05-07T06:39:16;14;13;
56175;PMS5003;63065;51.082;17.016;2023-05-07T06:41:42;12;12;
56175;PMS5003;63065;51.082;17.016;2023-05-07T06:44:07;14;12;
56175;PMS5003;63065;51.082;17.016;2023-05-07T06:46:33;8;8;
56175;PMS5003;63065;51.082;17.016;2023-05-07T06:48:59;13;12;
56175;PMS5003;63065;51.082;17.016;2023-05-07T06:51:25;9;9;
56175;PMS5003;63065;51.082;17.016;2023-05-07T06:53:50;11;9;
56175;PMS5003;63065;51.082;17.016;2023-05-07T06:56:16;15;15;
56175;PMS5003;63065;51.082;17.016;2023-05-07T06:58:42;18;17;
56175;PMS5003;63065;51.082;17.016;2023-05-07T07:01:07;16;14;
56175;PMS5003;63065;51.082;17.016;2023-05-07T07:03:32;15;15;
56175;PMS5003;63065;51.082;17.016;2023-05-07T07:05:57;12;12;
56175;PMS5003;63065;51.082;17.016;2023-05-07T07:08:22;11;10;
56175;PMS5003;63065;51.082;17.016;2023-05-07T07:10:47;16;16;
56175;PMS5003;63065;51.082;17.016;2023-05-07T07:13:12;14;14;
56175;PMS5003;63065;51.082;17.016;2023-05-07T07:15:37;13;12;
56175;PMS5003;63065;51.082;17.016;2023-05-07T07:18:04;13;13;
56175;PMS5003;63065;51.082;17.016;2023-05-07T07:20:28;11;11;
56175;PMS5003;63065;51.082;17.016;2023-05-07T07:22:54;15;12;
56175;PMS5003;63065;51.082;17.016;2023-05-07T07:25:20;11;10;
56175;PMS5003;63065;51.082;17.016;2023-05-07T07:27:45;12;12;
56175;PMS5003;63065;51.082;17.016;2023-05-07T07:30:12;13;10;
56175;PMS5003;63065;51.082;17.016;2023-05-07T07:32:36;10;10;
56175;PMS5003;63065;51.082;17.016;2023-05-07T07:35:02;9;9;
56175;PMS5003;63065;51.082;17.016;2023-05-07T07:37:27;10;8;
56175;PMS5003;63065;51.082;17.016;2023-05-07T07:39:53;9;9;
56175;PMS5003;63065;51.082;17.016;2023-05-07T07:42:19;9;8;
56175;PMS5003;63065;51.082;17.016;2023-05-07T07:44:45;7;7;
56175;PMS5003;63065;51.082;17.016;2023-05-07T07:47:11;9;9;
56175;PMS5003;63065;51.082;17.016;2023-05-07T07:49:37;9;8;
56175;PMS5003;63065;51.082;17.016;2023-05-07T07:52:03;9;9;
56175;PMS5003;63065;51.082;17.016;2023-05-07T07:54:28;10;10;
56175;PMS5003;63065;51.082;17.016;2023-05-07T07:56:53;12;12;
56175;PMS5003;63065;51.082;17.016;2023-05-07T07:59:18;10;9;
56175;PMS5003;63065;51.082;17.016;2023-05-07T08:01:44;10;10;
56175;PMS5003;63065;51.082;17.016;2023-05-07T08:04:10;10;10;
56175;PMS5003;63065;51.082;17.016;2023-05-07T08:06:36;13;12;
56175;PMS5003;63065;51.082;17.016;2023-05-07T08:09:02;14;12;
56175;PMS5003;63065;51.082;17.016;2023-05-07T08:11:27;14;12;
56175;PMS5003;63065;51.082;17.016;2023-05-07T08:13:53;11;11;
56175;PMS5003;63065;51.082;17.016;2023-05-07T08:16:19;16;15;
56175;PMS5003;63065;51.082;17.016;2023-05-07T08:18:44;17;17;
56175;PMS5003;63065;51.082;17.016;2023-05-07T08:21:09;14;14;
56175;PMS5003;63065;51.082;17.016;2023-05-07T08:23:35;15;14;
56175;PMS5003;63065;51.082;17.016;2023-05-07T08:26:00;18;17;
56175;PMS5003;63065;51.082;17.016;2023-05-07T08:28:26;16;16;
56175;PMS5003;63065;51.082;17.016;2023-05-07T08:30:51;15;15;
56175;PMS5003;63065;51.082;17.016;2023-05-07T08:33:16;15;13;
56175;PMS5003;63065;51.082;17.016;2023-05-07T08:35:41;13;11;
56175;PMS5003;63065;51.082;17.016;2023-05-07T08:38:07;17;16;
56175;PMS5003;63065;51.082;17.016;2023-05-07T08:40:33;15;15;
56175;PMS5003;63065;51.082;17.016;2023-05-07T08:42:57;23;21;
56175;PMS5003;63065;51.082;17.016;2023-05-07T08:45:23;16;16;
56175;PMS5003;63065;51.082;17.016;2023-05-07T08:47:50;15;15;
56175;PMS5003;63065;51.082;17.016;2023-05-07T08:50:14;15;15;
56175;PMS5003;63065;51.082;17.016;2023-05-07T08:52:39;19;17;
56175;PMS5003;63065;51.082;17.016;2023-05-07T08:55:05;15;15;
56175;PMS5003;63065;51.082;17.016;2023-05-07T08:57:31;19;15;
56175;PMS5003;63065;51.082;17.016;2023-05-07T08:59:56;17;16;
56175;PMS5003;63065;51.082;17.016;2023-05-07T09:02:21;15;15;
56175;PMS5003;63065;51.082;17.016;2023-05-07T09:04:46;21;19;
56175;PMS5003;63065;51.082;17.016;2023-05-07T09:07:11;21;18;
56175;PMS5003;63065;51.082;17.016;2023-05-07T09:09:36;19;19;
56175;PMS5003;63065;51.082;17.016;2023-05-07T09:12:03;27;26;
56175;PMS5003;63065;51.082;17.016;2023-05-07T09:14:28;23;23;
56175;PMS5003;63065;51.082;17.016;2023-05-07T09:16:53;19;17;
56175;PMS5003;63065;51.082;17.016;2023-05-07T09:19:22;19;18;
56175;PMS5003;63065;51.082;17.016;2023-05-07T09:21:45;23;20;
56175;PMS5003;63065;51.082;17.016;2023-05-07T09:24:10;20;20;
56175;PMS5003;63065;51.082;17.016;2023-05-07T09:26:35;22;19;
56175;PMS5003;63065;51.082;17.016;2023-05-07T09:29:01;19;19;
56175;PMS5003;63065;51.082;17.016;2023-05-07T09:31:26;22;20;
56175;PMS5003;63065;51.082;17.016;2023-05-07T09:33:52;19;17;
56175;PMS5003;63065;51.082;17.016;2023-05-07T09:36:16;16;15;
56175;PMS5003;63065;51.082;17.016;2023-05-07T09:38:41;19;17;
56175;PMS5003;63065;51.082;17.016;2023-05-07T09:41:07;15;15;
56175;PMS5003;63065;51.082;17.016;2023-05-07T09:43:33;15;15;
56175;PMS5003;63065;51.082;17.016;2023-05-07T09:45:58;17;15;
56175;PMS5003;63065;51.082;17.016;2023-05-07T09:48:23;18;16;
56175;PMS5003;63065;51.082;17.016;2023-05-07T09:50:49;15;14;
56175;PMS5003;63065;51.082;17.016;2023-05-07T09:53:13;17;16;
56175;PMS5003;63065;51.082;17.016;2023-05-07T09:55:39;14;14;
56175;PMS5003;63065;51.082;17.016;2023-05-07T09:58:04;21;18;
56175;PMS5003;63065;51.082;17.016;2023-05-07T10:00:30;27;25;
56175;PMS5003;63065;51.082;17.016;2023-05-07T10:02:56;28;26;
56175;PMS5003;63065;51.082;17.016;2023-05-07T10:05:21;27;25;
56175;PMS5003;63065;51.082;17.016;2023-05-07T10:07:47;21;21;
56175;PMS5003;63065;51.082;17.016;2023-05-07T10:10:12;22;20;
56175;PMS5003;63065;51.082;17.016;2023-05-07T10:12:38;19;17;
56175;PMS5003;63065;51.082;17.016;2023-05-07T10:15:04;18;16;
56175;PMS5003;63065;51.082;17.016;2023-05-07T10:17:29;18;18;
56175;PMS5003;63065;51.082;17.016;2023-05-07T10:19:55;17;16;
56175;PMS5003;63065;51.082;17.016;2023-05-07T10:22:20;16;16;
56175;PMS5003;63065;51.082;17.016;2023-05-07T10:24:46;17;17;
56175;PMS5003;63065;51.082;17.016;2023-05-07T10:27:12;14;13;
56175;PMS5003;63065;51.082;17.016;2023-05-07T10:29:39;16;16;
56175;PMS5003;63065;51.082;17.016;2023-05-07T10:32:08;15;13;
56175;PMS5003;63065;51.082;17.016;2023-05-07T10:34:30;14;14;
56175;PMS5003;63065;51.082;17.016;2023-05-07T10:36:54;10;10;
56175;PMS5003;63065;51.082;17.016;2023-05-07T10:39:20;12;11;
56175;PMS5003;63065;51.082;17.016;2023-05-07T10:41:45;11;11;
56175;PMS5003;63065;51.082;17.016;2023-05-07T10:44:11;13;13;
56175;PMS5003;63065;51.082;17.016;2023-05-07T10:46:37;15;13;
56175;PMS5003;63065;51.082;17.016;2023-05-07T10:49:06;11;11;
56175;PMS5003;63065;51.082;17.016;2023-05-07T10:51:28;17;17;
56175;PMS5003;63065;51.082;17.016;2023-05-07T10:56:25;15;14;
56175;PMS5003;63065;51.082;17.016;2023-05-07T10:58:45;15;15;
56175;PMS5003;63065;51.082;17.016;2023-05-07T11:01:10;13;13;
56175;PMS5003;63065;51.082;17.016;2023-05-07T11:03:36;15;15;
56175;PMS5003;63065;51.082;17.016;2023-05-07T11:08:28;11;11;
56175;PMS5003;63065;51.082;17.016;2023-05-07T11:10:53;11;11;
56175;PMS5003;63065;51.082;17.016;2023-05-07T11:13:19;13;13;
56175;PMS5003;63065;51.082;17.016;2023-05-07T11:15:45;12;11;
56175;PMS5003;63065;51.082;17.016;2023-05-07T11:18:10;14;14;
56175;PMS5003;63065;51.082;17.016;2023-05-07T11:23:01;17;17;
56175;PMS5003;63065;51.082;17.016;2023-05-07T11:25:27;13;13;
56175;PMS5003;63065;51.082;17.016;2023-05-07T11:27:53;16;14;
56175;PMS5003;63065;51.082;17.016;2023-05-07T11:30:18;16;16;
56175;PMS5003;63065;51.082;17.016;2023-05-07T11:32:46;15;14;
56175;PMS5003;63065;51.082;17.016;2023-05-07T11:35:10;14;14;
56175;PMS5003;63065;51.082;17.016;2023-05-07T11:37:35;17;17;
56175;PMS5003;63065;51.082;17.016;2023-05-07T11:40:04;15;15;
56175;PMS5003;63065;51.082;17.016;2023-05-07T11:42:27;19;19;
56175;PMS5003;63065;51.082;17.016;2023-05-07T11:44:52;14;14;
56175;PMS5003;63065;51.082;17.016;2023-05-07T11:47:17;21;19;
56175;PMS5003;63065;51.082;17.016;2023-05-07T11:49:43;14;14;
56175;PMS5003;63065;51.082;17.016;2023-05-07T11:52:08;13;13;
56175;PMS5003;63065;51.082;17.016;2023-05-07T11:54:35;12;9;
56175;PMS5003;63065;51.082;17.016;2023-05-07T11:56:59;15;12;
56175;PMS5003;63065;51.082;17.016;2023-05-07T11:59:25;10;10;
56175;PMS5003;63065;51.082;17.016;2023-05-07T12:01:51;12;11;
56175;PMS5003;63065;51.082;17.016;2023-05-07T12:04:19;13;11;
56175;PMS5003;63065;51.082;17.016;2023-05-07T12:06:42;12;12;
56175;PMS5003;63065;51.082;17.016;2023-05-07T12:09:07;18;17;
56175;PMS5003;63065;51.082;17.016;2023-05-07T12:11:33;18;17;
56175;PMS5003;63065;51.082;17.016;2023-05-07T12:13:59;11;11;
56175;PMS5003;63065;51.082;17.016;2023-05-07T12:16:24;11;11;
56175;PMS5003;63065;51.082;17.016;2023-05-07T12:18:50;16;13;
56175;PMS5003;63065;51.082;17.016;2023-05-07T12:21:16;12;12;
56175;PMS5003;63065;51.082;17.016;2023-05-07T12:23:41;19;18;
56175;PMS5003;63065;51.082;17.016;2023-05-07T12:26:07;14;14;
56175;PMS5003;63065;51.082;17.016;2023-05-07T12:28:36;14;14;
56175;PMS5003;63065;51.082;17.016;2023-05-07T12:30:57;13;13;
56175;PMS5003;63065;51.082;17.016;2023-05-07T12:33:23;14;14;
56175;PMS5003;63065;51.082;17.016;2023-05-07T12:35:48;14;13;
56175;PMS5003;63065;51.082;17.016;2023-05-07T12:38:14;14;12;
56175;PMS5003;63065;51.082;17.016;2023-05-07T12:40:40;15;12;
56175;PMS5003;63065;51.082;17.016;2023-05-07T12:43:05;18;16;
56175;PMS5003;63065;51.082;17.016;2023-05-07T12:45:30;15;15;
56175;PMS5003;63065;51.082;17.016;2023-05-07T12:47:56;19;18;
56175;PMS5003;63065;51.082;17.016;2023-05-07T12:50:22;18;16;
56175;PMS5003;63065;51.082;17.016;2023-05-07T12:52:47;14;14;
56175;PMS5003;63065;51.082;17.016;2023-05-07T12:55:13;18;18;
56175;PMS5003;63065;51.082;17.016;2023-05-07T12:57:38;20;18;
56175;PMS5003;63065;51.082;17.016;2023-05-07T13:00:03;14;14;
56175;PMS5003;63065;51.082;17.016;2023-05-07T13:02:32;13;13;
56175;PMS5003;63065;51.082;17.016;2023-05-07T13:04:53;14;14;
56175;PMS5003;63065;51.082;17.016;2023-05-07T13:07:19;14;12;
56175;PMS5003;63065;51.082;17.016;2023-05-07T13:09:45;14;14;
56175;PMS5003;63065;51.082;17.016;2023-05-07T13:12:10;14;14;
56175;PMS5003;63065;51.082;17.016;2023-05-07T13:14:36;14;13;
56175;PMS5003;63065;51.082;17.016;2023-05-07T13:17:01;14;14;
56175;PMS5003;63065;51.082;17.016;2023-05-07T13:19:26;19;17;
56175;PMS5003;63065;51.082;17.016;2023-05-07T13:21:52;14;14;
56175;PMS5003;63065;51.082;17.016;2023-05-07T13:24:17;16;15;
56175;PMS5003;63065;51.082;17.016;2023-05-07T13:26:43;14;14;
56175;PMS5003;63065;51.082;17.016;2023-05-07T13:29:09;17;17;
56175;PMS5003;63065;51.082;17.016;2023-05-07T13:31:34;18;18;
56175;PMS5003;63065;51.082;17.016;2023-05-07T13:33:59;15;15;
56175;PMS5003;63065;51.082;17.016;2023-05-07T13:36:24;15;15;
56175;PMS5003;63065;51.082;17.016;2023-05-07T13:38:50;18;14;
56175;PMS5003;63065;51.082;17.016;2023-05-07T13:41:15;19;17;
56175;PMS5003;63065;51.082;17.016;2023-05-07T13:43:41;17;16;
56175;PMS5003;63065;51.082;17.016;2023-05-07T13:46:06;14;14;
56175;PMS5003;63065;51.082;17.016;2023-05-07T13:48:32;14;14;
56175;PMS5003;63065;51.082;17.016;2023-05-07T13:50:58;13;12;
56175;PMS5003;63065;51.082;17.016;2023-05-07T13:53:23;14;12;
56175;PMS5003;63065;51.082;17.016;2023-05-07T13:55:49;14;13;
56175;PMS5003;63065;51.082;17.016;2023-05-07T13:58:15;13;13;
56175;PMS5003;63065;51.082;17.016;2023-05-07T14:00:41;14;14;
56175;PMS5003;63065;51.082;17.016;2023-05-07T14:03:07;14;14;
56175;PMS5003;63065;51.082;17.016;2023-05-07T14:05:32;16;16;
56175;PMS5003;63065;51.082;17.016;2023-05-07T14:07:58;11;10;
56175;PMS5003;63065;51.082;17.016;2023-05-07T14:10:24;15;15;
56175;PMS5003;63065;51.082;17.016;2023-05-07T14:12:48;13;13;
56175;PMS5003;63065;51.082;17.016;2023-05-07T14:15:14;14;14;
56175;PMS5003;63065;51.082;17.016;2023-05-07T14:17:40;13;13;
56175;PMS5003;63065;51.082;17.016;2023-05-07T14:20:05;15;14;
56175;PMS5003;63065;51.082;17.016;2023-05-07T14:22:31;15;14;
56175;PMS5003;63065;51.082;17.016;2023-05-07T14:24:56;13;13;
56175;PMS5003;63065;51.082;17.016;2023-05-07T14:27:21;14;14;
56175;PMS5003;63065;51.082;17.016;2023-05-07T14:29:48;12;11;
56175;PMS5003;63065;51.082;17.016;2023-05-07T14:32:12;17;15;
56175;PMS5003;63065;51.082;17.016;2023-05-07T14:34:38;14;14;
56175;PMS5003;63065;51.082;17.016;2023-05-07T14:37:04;14;13;
56175;PMS5003;63065;51.082;17.016;2023-05-07T14:39:29;16;14;
56175;PMS5003;63065;51.082;17.016;2023-05-07T14:41:55;13;12;
56175;PMS5003;63065;51.082;17.016;2023-05-07T14:44:21;15;15;
56175;PMS5003;63065;51.082;17.016;2023-05-07T14:46:47;14;14;
56175;PMS5003;63065;51.082;17.016;2023-05-07T14:49:13;15;15;
56175;PMS5003;63065;51.082;17.016;2023-05-07T14:51:38;12;12;
56175;PMS5003;63065;51.082;17.016;2023-05-07T14:54:04;15;12;
56175;PMS5003;63065;51.082;17.016;2023-05-07T14:56:29;15;14;
56175;PMS5003;63065;51.082;17.016;2023-05-07T14:58:55;19;19;
56175;PMS5003;63065;51.082;17.016;2023-05-07T15:01:20;15;13;
56175;PMS5003;63065;51.082;17.016;2023-05-07T15:03:46;14;14;
56175;PMS5003;63065;51.082;17.016;2023-05-07T15:06:12;15;14;
56175;PMS5003;63065;51.082;17.016;2023-05-07T15:08:37;16;14;
56175;PMS5003;63065;51.082;17.016;2023-05-07T15:11:03;17;14;
56175;PMS5003;63065;51.082;17.016;2023-05-07T15:13:29;14;14;
56175;PMS5003;63065;51.082;17.016;2023-05-07T15:15:54;12;12;
56175;PMS5003;63065;51.082;17.016;2023-05-07T15:18:20;13;13;
56175;PMS5003;63065;51.082;17.016;2023-05-07T15:20:45;16;16;
56175;PMS5003;63065;51.082;17.016;2023-05-07T15:23:11;16;16;
56175;PMS5003;63065;51.082;17.016;2023-05-07T15:25:37;16;15;
56175;PMS5003;63065;51.082;17.016;2023-05-07T15:28:02;15;15;
56175;PMS5003;63065;51.082;17.016;2023-05-07T15:30:28;19;16;
56175;PMS5003;63065;51.082;17.016;2023-05-07T15:32:53;20;18;
56175;PMS5003;63065;51.082;17.016;2023-05-07T15:35:19;21;18;
56175;PMS5003;63065;51.082;17.016;2023-05-07T15:37:45;15;14;
56175;PMS5003;63065;51.082;17.016;2023-05-07T15:40:11;14;14;
56175;PMS5003;63065;51.082;17.016;2023-05-07T15:42:36;17;15;
56175;PMS5003;63065;51.082;17.016;2023-05-07T15:45:02;14;14;
56175;PMS5003;63065;51.082;17.016;2023-05-07T15:47:27;17;14;
56175;PMS5003;63065;51.082;17.016;2023-05-07T15:49:53;17;16;
56175;PMS5003;63065;51.082;17.016;2023-05-07T15:52:18;17;17;
56175;PMS5003;63065;51.082;17.016;2023-05-07T15:54:44;16;15;
56175;PMS5003;63065;51.082;17.016;2023-05-07T15:57:09;15;15;
56175;PMS5003;63065;51.082;17.016;2023-05-07T15:59:36;18;16;